createdAt,value
2019-06-10T00:00:42.120Z,7.17
2019-06-10T00:02:21.270Z,9.60
2019-06-10T00:03:57.965Z,7.00
2019-06-10T00:05:35.459Z,4.00
2019-06-10T00:08:56.032Z,10.27
2019-06-10T00:10:33.523Z,7.53
2019-06-10T00:12:12.552Z,6.83
2019-06-10T00:13:50.739Z,8.53
2019-06-10T00:15:27.965Z,10.10
2019-06-10T00:17:06.721Z,4.07
2019-06-10T00:18:45.747Z,6.43
2019-06-10T00:20:22.619Z,7.47
2019-06-10T00:21:59.915Z,4.13
2019-06-10T00:23:38.220Z,4.67
2019-06-10T00:25:14.958Z,5.00
2019-06-10T00:26:52.347Z,7.63
2019-06-10T00:28:30.984Z,4.97
2019-06-10T00:30:10.064Z,8.33
2019-06-10T00:31:47.427Z,7.37
2019-06-10T00:33:24.590Z,6.57
2019-06-10T00:35:03.161Z,8.03
2019-06-10T00:36:41.347Z,6.60
2019-06-10T00:38:17.987Z,6.57
2019-06-10T00:39:55.415Z,6.17
2019-06-10T00:41:31.934Z,9.57
2019-06-10T00:43:12.984Z,5.00
2019-06-10T00:44:47.445Z,5.03
2019-06-10T00:46:24.829Z,6.73
2019-06-10T00:48:13.488Z,7.50
2019-06-10T00:49:41.057Z,5.17
2019-06-10T00:51:17.651Z,6.83
2019-06-10T00:52:54.991Z,5.27
2019-06-10T00:54:31.728Z,6.77
2019-06-10T00:56:12.543Z,6.23
2019-06-10T00:57:47.375Z,5.47
2019-06-10T00:59:24.534Z,5.13
2019-06-10T01:01:04.253Z,11.90
2019-06-10T01:02:41.738Z,7.73
2019-06-10T01:04:18.486Z,7.63
2019-06-10T01:05:55.776Z,4.43
2019-06-10T01:07:32.321Z,6.97
2019-06-10T01:09:13.194Z,6.23
2019-06-10T01:10:51.978Z,9.00
2019-06-10T01:12:28.475Z,5.00
2019-06-10T01:14:05.476Z,5.93
2019-06-10T01:15:43.355Z,6.50
2019-06-10T01:17:21.345Z,8.13
2019-06-10T01:19:01.279Z,8.90
2019-06-10T01:20:37.181Z,8.10
2019-06-10T01:22:15.906Z,9.93
2019-06-10T01:23:52.716Z,12.40
2019-06-10T01:25:31.106Z,9.43
2019-06-10T01:27:07.747Z,8.43
2019-06-10T01:28:45.159Z,6.53
2019-06-10T01:30:26.371Z,9.57
2019-06-10T01:32:01.744Z,9.03
2019-06-10T01:33:38.455Z,7.37
2019-06-10T01:35:17.416Z,7.47
2019-06-10T01:36:53.983Z,7.17
2019-06-10T01:38:31.755Z,9.80
2019-06-10T01:40:12.899Z,9.27
2019-06-10T01:41:47.949Z,9.67
2019-06-10T01:43:24.446Z,6.53
2019-06-10T01:45:01.800Z,9.87
2019-06-10T01:46:40.914Z,13.70
2019-06-10T01:48:17.928Z,8.30
2019-06-10T01:49:54.342Z,5.40
2019-06-10T01:51:31.820Z,6.90
2019-06-10T01:53:31.194Z,8.70
2019-06-10T01:55:13.517Z,5.33
2019-06-10T01:56:51.081Z,6.47
2019-06-10T01:58:27.799Z,6.40
2019-06-10T02:00:10.974Z,5.73
2019-06-10T02:01:49.051Z,6.57
2019-06-10T02:03:26.331Z,6.47
2019-06-10T02:05:02.987Z,7.90
2019-06-10T02:06:40.644Z,6.10
2019-06-10T02:08:17.839Z,5.77
2019-06-10T02:09:56.221Z,7.03
2019-06-10T02:11:33.053Z,8.63
2019-06-10T02:13:12.084Z,6.13
2019-06-10T02:14:50.936Z,6.43
2019-06-10T02:16:27.338Z,7.17
2019-06-10T02:18:04.766Z,6.00
2019-06-10T02:19:41.521Z,9.83
2019-06-10T02:21:22.150Z,9.00
2019-06-10T02:22:57.019Z,6.93
2019-06-10T02:24:34.266Z,7.13
2019-06-10T02:26:11.844Z,8.20
2019-06-10T02:27:50.734Z,5.30
2019-06-10T02:29:27.425Z,6.50
2019-06-10T02:31:04.748Z,6.87
2019-06-10T02:32:42.760Z,9.33
2019-06-10T02:34:26.875Z,8.40
2019-06-10T02:35:58.830Z,6.10
2019-06-10T02:37:38.107Z,5.57
2019-06-10T02:39:20.152Z,6.13
2019-06-10T02:40:54.007Z,8.93
2019-06-10T02:42:35.841Z,6.07
2019-06-10T02:44:17.183Z,8.27
2019-06-10T02:45:52.905Z,7.07
2019-06-10T02:47:33.622Z,8.77
2019-06-10T02:49:23.344Z,7.10
2019-06-10T02:50:56.859Z,6.23
2019-06-10T02:52:38.385Z,6.47
2019-06-10T02:54:15.544Z,5.80
2019-06-10T02:55:53.888Z,6.60
2019-06-10T02:57:36.554Z,6.30
2019-06-10T02:59:10.293Z,8.13
2019-06-10T03:00:49.110Z,8.73
2019-06-10T03:02:31.925Z,8.77
2019-06-10T03:04:05.611Z,8.50
2019-06-10T03:05:46.614Z,9.07
2019-06-10T03:07:26.179Z,11.60
2019-06-10T03:09:03.432Z,11.53
2019-06-10T03:10:38.535Z,9.73
2019-06-10T03:12:17.649Z,6.93
2019-06-10T03:13:54.298Z,8.80
2019-06-10T03:15:32.709Z,8.77
2019-06-10T03:17:13.939Z,7.30
2019-06-10T03:18:52.554Z,8.33
2019-06-10T03:20:29.144Z,7.83
2019-06-10T03:22:06.637Z,14.53
2019-06-10T03:23:43.114Z,8.47
2019-06-10T03:25:22.996Z,14.53
2019-06-10T03:26:58.845Z,11.13
2019-06-10T03:28:36.237Z,9.03
2019-06-10T03:30:16.922Z,11.27
2019-06-10T03:31:55.302Z,10.00
2019-06-10T03:33:39.910Z,9.93
2019-06-10T03:35:12.952Z,13.20
2019-06-10T03:36:48.035Z,9.13
2019-06-10T03:38:26.976Z,9.50
2019-06-10T03:40:05.479Z,10.27
2019-06-10T03:41:42.771Z,8.40
2019-06-10T03:43:20.768Z,8.80
2019-06-10T03:44:58.905Z,10.90
2019-06-10T03:46:35.543Z,9.43
2019-06-10T03:48:13.145Z,14.03
2019-06-10T03:49:52.884Z,8.93
2019-06-10T03:51:28.822Z,9.77
2019-06-10T03:53:05.463Z,16.83
2019-06-10T03:54:43.334Z,8.07
2019-06-10T03:56:23.562Z,9.40
2019-06-10T03:57:59.297Z,10.30
2019-06-10T03:59:35.756Z,10.30
2019-06-10T04:01:13.264Z,14.17
2019-06-10T04:02:49.747Z,12.77
2019-06-10T04:04:28.269Z,11.03
2019-06-10T04:06:05.085Z,14.13
2019-06-10T04:07:42.901Z,13.27
2019-06-10T04:09:19.554Z,8.43
2019-06-10T04:10:56.403Z,18.23
2019-06-10T04:12:32.944Z,9.03
2019-06-10T04:14:10.213Z,11.37
2019-06-10T04:15:46.747Z,11.80
2019-06-10T04:17:25.318Z,11.37
2019-06-10T04:19:02.649Z,11.40
2019-06-10T04:20:42.677Z,12.63
2019-06-10T04:22:19.614Z,10.53
2019-06-10T04:23:57.332Z,9.57
2019-06-10T04:25:34.000Z,12.47
2019-06-10T04:27:12.267Z,10.67
2019-06-10T04:28:48.851Z,11.37
2019-06-10T04:30:27.593Z,11.23
2019-06-10T04:32:04.838Z,11.70
2019-06-10T04:33:42.336Z,9.57
2019-06-10T04:35:20.293Z,11.87
2019-06-10T04:36:57.970Z,11.37
2019-06-10T04:38:35.002Z,8.93
2019-06-10T04:40:13.407Z,11.33
2019-06-10T04:41:50.037Z,12.90
2019-06-10T04:43:27.748Z,12.30
2019-06-10T04:45:06.410Z,12.53
2019-06-10T04:46:43.732Z,12.93
2019-06-10T04:48:21.219Z,13.47
2019-06-10T04:49:59.147Z,12.10
2019-06-10T04:51:36.252Z,13.47
2019-06-10T04:53:13.678Z,12.97
2019-06-10T04:54:52.607Z,10.97
2019-06-10T04:56:31.203Z,12.93
2019-06-10T04:58:07.643Z,17.07
2019-06-10T04:59:44.884Z,12.13
2019-06-10T05:01:24.127Z,14.90
2019-06-10T05:03:02.738Z,14.83
2019-06-10T05:04:38.858Z,11.67
2019-06-10T05:06:17.176Z,12.67
2019-06-10T05:07:53.711Z,13.90
2019-06-10T05:09:33.592Z,12.53
2019-06-10T05:11:09.945Z,12.27
2019-06-10T05:12:48.188Z,13.73
2019-06-10T05:14:25.719Z,11.23
2019-06-10T05:16:05.067Z,13.30
2019-06-10T05:17:43.689Z,12.53
2019-06-10T05:19:23.187Z,15.00
2019-06-10T05:20:58.959Z,14.57
2019-06-10T05:22:36.494Z,16.20
2019-06-10T05:24:13.100Z,13.47
2019-06-10T05:25:52.651Z,13.80
2019-06-10T05:27:30.815Z,16.40
2019-06-10T05:29:08.429Z,14.23
2019-06-10T05:30:44.905Z,14.13
2019-06-10T05:32:23.208Z,13.70
2019-06-10T05:34:02.395Z,13.87
2019-06-10T05:35:39.551Z,17.33
2019-06-10T05:37:16.092Z,16.57
2019-06-10T05:38:53.411Z,19.17
2019-06-10T05:40:29.959Z,14.57
2019-06-10T05:42:07.556Z,15.33
2019-06-10T05:43:44.195Z,18.93
2019-06-10T05:45:24.487Z,24.37
2019-06-10T05:47:00.199Z,22.40
2019-06-10T05:48:37.514Z,20.67
2019-06-10T05:50:14.459Z,28.97
2019-06-10T05:51:52.760Z,52.30
2019-06-10T05:53:33.697Z,18.00
2019-06-10T05:55:09.423Z,76.83
2019-06-10T05:56:45.910Z,64.23
2019-06-10T05:58:24.743Z,51.50
2019-06-10T06:00:10.780Z,17.43
2019-06-10T06:01:43.238Z,24.67
2019-06-10T06:03:19.897Z,27.67
2019-06-10T06:04:57.660Z,26.80
2019-06-10T06:06:35.388Z,19.70
2019-06-10T06:08:12.940Z,19.07
2019-06-10T06:09:49.578Z,28.03
2019-06-10T06:11:27.757Z,19.17
2019-06-10T06:13:04.387Z,22.73
2019-06-10T06:14:42.563Z,17.57
2019-06-10T06:16:19.251Z,31.87
2019-06-10T06:18:09.238Z,27.57
2019-06-10T06:19:37.302Z,27.33
2019-06-10T06:21:25.323Z,39.43
2019-06-10T06:22:52.436Z,43.03
2019-06-10T06:24:29.812Z,29.23
2019-06-10T06:26:05.830Z,25.27
2019-06-10T06:27:43.269Z,21.20
2019-06-10T06:29:22.264Z,23.93
2019-06-10T06:30:59.762Z,19.87
2019-06-10T06:32:37.840Z,20.27
2019-06-10T06:34:15.363Z,18.50
2019-06-10T06:35:52.526Z,23.80
2019-06-10T06:37:35.294Z,46.30
2019-06-10T06:39:09.309Z,31.33
2019-06-10T06:40:47.364Z,24.87
2019-06-10T06:42:23.901Z,22.20
2019-06-10T06:44:02.358Z,23.23
2019-06-10T06:45:39.118Z,18.77
2019-06-10T06:47:16.577Z,22.77
2019-06-10T06:48:53.479Z,34.83
2019-06-10T06:50:34.340Z,47.13
2019-06-10T06:52:09.337Z,20.03
2019-06-10T06:53:51.951Z,17.07
2019-06-10T06:55:25.851Z,20.07
2019-06-10T06:57:03.647Z,19.27
2019-06-10T06:58:43.019Z,24.17
2019-06-10T07:00:38.244Z,22.20
2019-06-10T07:01:58.027Z,20.03
2019-06-10T07:03:38.243Z,17.50
2019-06-10T07:05:14.755Z,19.17
2019-06-10T07:06:55.478Z,20.70
2019-06-10T07:08:36.105Z,21.63
2019-06-10T07:10:13.371Z,22.00
2019-06-10T07:11:52.870Z,19.93
2019-06-10T07:13:33.990Z,20.97
2019-06-10T07:15:12.151Z,18.80
2019-06-10T07:16:49.643Z,17.43
2019-06-10T07:18:26.156Z,18.60
2019-06-10T07:20:03.452Z,25.10
2019-06-10T07:21:58.198Z,20.23
2019-06-10T07:23:19.051Z,19.10
2019-06-10T07:24:55.588Z,23.37
2019-06-10T07:26:36.116Z,20.97
2019-06-10T07:28:12.560Z,20.07
2019-06-10T07:29:52.753Z,19.37
2019-06-10T07:31:29.125Z,20.23
2019-06-10T07:33:06.555Z,19.87
2019-06-10T07:34:46.820Z,17.70
2019-06-10T07:36:23.563Z,20.37
2019-06-10T07:38:02.977Z,21.73
2019-06-10T07:39:41.710Z,20.20
2019-06-10T07:41:18.536Z,21.10
2019-06-10T07:42:57.672Z,25.83
2019-06-10T07:44:34.886Z,18.63
2019-06-10T07:46:13.630Z,20.67
2019-06-10T07:47:52.292Z,21.03
2019-06-10T07:49:32.160Z,21.57
2019-06-10T07:51:08.314Z,21.37
2019-06-10T07:52:46.877Z,20.43
2019-06-10T07:54:23.984Z,20.63
2019-06-10T07:56:03.213Z,18.43
2019-06-10T07:57:39.707Z,19.03
2019-06-10T07:59:17.165Z,20.37
2019-06-10T08:00:54.620Z,17.80
2019-06-10T08:02:34.039Z,19.93
2019-06-10T08:04:12.045Z,25.73
2019-06-10T08:05:52.078Z,19.83
2019-06-10T08:07:27.859Z,20.33
2019-06-10T08:09:06.540Z,25.70
2019-06-10T08:10:46.074Z,21.43
2019-06-10T08:12:23.260Z,20.57
2019-06-10T08:14:04.374Z,20.70
2019-06-10T08:15:39.746Z,31.67
2019-06-10T08:17:16.559Z,24.23
2019-06-10T08:19:20.121Z,20.67
2019-06-10T08:20:47.999Z,27.97
2019-06-10T08:22:33.534Z,20.93
2019-06-10T08:24:04.227Z,26.07
2019-06-10T08:25:45.368Z,21.67
2019-06-10T08:27:22.725Z,19.40
2019-06-10T08:28:59.914Z,24.53
2019-06-10T08:30:37.639Z,19.10
2019-06-10T08:32:15.183Z,21.03
2019-06-10T08:33:53.359Z,24.33
2019-06-10T08:35:39.412Z,26.03
2019-06-10T08:37:09.452Z,20.60
2019-06-10T08:38:48.739Z,23.83
2019-06-10T08:40:25.231Z,27.50
2019-06-10T08:42:03.134Z,20.70
2019-06-10T08:43:41.342Z,25.37
2019-06-10T08:45:19.040Z,20.17
2019-06-10T08:46:55.587Z,21.63
2019-06-10T08:48:33.199Z,28.10
2019-06-10T08:50:09.901Z,31.30
2019-06-10T08:51:50.038Z,20.50
2019-06-10T08:53:25.534Z,17.53
2019-06-10T08:55:03.512Z,20.17
2019-06-10T08:56:42.506Z,21.87
2019-06-10T08:58:19.401Z,23.50
2019-06-10T08:59:56.844Z,23.47
2019-06-10T09:01:34.252Z,23.33
2019-06-10T09:03:12.639Z,23.73
2019-06-10T09:04:53.301Z,22.40
2019-06-10T09:06:28.457Z,26.33
2019-06-10T09:08:08.056Z,20.43
2019-06-10T09:09:47.209Z,19.10
2019-06-10T09:11:24.007Z,20.43
2019-06-10T09:13:02.827Z,24.32
2019-06-10T09:14:41.031Z,19.15
2019-06-10T09:16:19.509Z,23.30
2019-06-10T09:17:57.049Z,55.55
2019-06-10T09:19:33.703Z,20.57
2019-06-10T09:21:12.830Z,19.07
2019-06-10T09:23:08.150Z,18.37
2019-06-10T09:24:28.506Z,24.10
2019-06-10T09:26:05.528Z,20.32
2019-06-10T09:27:46.625Z,18.80
2019-06-10T09:29:22.311Z,32.93
2019-06-10T09:31:03.648Z,18.92
2019-06-10T09:32:39.862Z,21.80
2019-06-10T09:34:18.366Z,57.40
2019-06-10T09:35:55.174Z,20.95
2019-06-10T09:37:32.622Z,19.60
2019-06-10T09:39:09.205Z,18.00
2019-06-10T09:41:00.213Z,48.85
2019-06-10T09:42:33.332Z,19.15
2019-06-10T09:44:12.618Z,22.45
2019-06-10T09:45:51.363Z,42.33
2019-06-10T09:47:28.562Z,24.67
2019-06-10T09:49:07.556Z,22.70
2019-06-10T09:50:50.445Z,21.65
2019-06-10T09:52:24.159Z,21.10
2019-06-10T09:54:05.719Z,18.23
2019-06-10T09:55:41.638Z,24.77
2019-06-10T09:57:18.228Z,20.52
2019-06-10T09:58:55.628Z,20.70
2019-06-10T10:00:57.741Z,18.67
2019-06-10T10:02:33.462Z,18.77
2019-06-10T10:04:12.272Z,19.82
2019-06-10T10:05:59.672Z,18.62
2019-06-10T10:07:28.706Z,17.67
2019-06-10T10:09:08.400Z,17.20
2019-06-10T10:10:49.477Z,18.57
2019-06-10T10:12:24.662Z,18.65
2019-06-10T10:14:06.338Z,19.75
2019-06-10T10:15:41.855Z,19.07
2019-06-10T10:17:18.688Z,20.82
2019-06-10T10:19:00.337Z,17.40
2019-06-10T10:20:34.931Z,17.77
2019-06-10T10:22:14.057Z,19.67
2019-06-10T10:24:04.353Z,20.90
2019-06-10T10:25:33.275Z,21.17
2019-06-10T10:27:11.020Z,19.40
2019-06-10T10:28:51.824Z,18.30
2019-06-10T10:30:28.400Z,22.40
2019-06-10T10:32:08.194Z,22.95
2019-06-10T10:33:44.750Z,17.62
2019-06-10T10:35:24.254Z,20.10
2019-06-10T10:37:02.926Z,18.65
2019-06-10T10:38:40.321Z,19.27
2019-06-10T10:40:17.744Z,20.68
2019-06-10T10:41:57.257Z,21.25
2019-06-10T10:43:37.617Z,22.30
2019-06-10T10:45:14.337Z,20.92
2019-06-10T10:46:53.749Z,18.67
2019-06-10T10:48:33.215Z,20.27
2019-06-10T10:50:13.646Z,16.73
2019-06-10T10:51:49.667Z,19.37
2019-06-10T10:53:26.138Z,18.92
2019-06-10T10:55:06.547Z,17.37
2019-06-10T10:56:43.603Z,17.85
2019-06-10T10:58:22.528Z,17.73
2019-06-10T10:59:59.129Z,16.10
2019-06-10T11:01:37.032Z,15.23
2019-06-10T11:03:13.749Z,15.05
2019-06-10T11:04:55.189Z,16.05
2019-06-10T11:06:32.157Z,20.60
2019-06-10T11:08:13.599Z,20.27
2019-06-10T11:09:50.237Z,19.27
2019-06-10T11:11:30.145Z,17.73
2019-06-10T11:13:10.761Z,18.02
2019-06-10T11:14:49.242Z,16.93
2019-06-10T11:16:25.882Z,17.82
2019-06-10T11:18:04.071Z,21.75
2019-06-10T11:19:40.611Z,26.77
2019-06-10T11:21:18.144Z,18.82
2019-06-10T11:22:54.801Z,20.50
2019-06-10T11:24:37.798Z,17.15
2019-06-10T11:26:12.483Z,19.00
2019-06-10T11:27:50.639Z,16.75
2019-06-10T11:29:28.094Z,16.57
2019-06-10T11:31:06.168Z,29.32
2019-06-10T11:32:43.254Z,16.23
2019-06-10T11:34:20.965Z,18.92
2019-06-10T11:35:59.356Z,19.10
2019-06-10T11:37:36.966Z,19.92
2019-06-10T11:39:13.566Z,17.32
2019-06-10T11:40:57.684Z,16.52
2019-06-10T11:42:33.466Z,15.83
2019-06-10T11:44:10.682Z,16.35
2019-06-10T11:45:52.360Z,18.15
2019-06-10T11:47:26.484Z,15.63
2019-06-10T11:49:04.011Z,14.28
2019-06-10T11:50:42.814Z,15.70
2019-06-10T11:52:19.653Z,17.55
2019-06-10T11:53:58.666Z,19.95
2019-06-10T11:55:35.475Z,14.25
2019-06-10T11:57:13.254Z,21.12
2019-06-10T11:58:50.081Z,16.85
2019-06-10T12:00:28.794Z,21.45
2019-06-10T12:02:06.048Z,16.60
2019-06-10T12:03:43.698Z,14.60
2019-06-10T12:05:23.522Z,16.40
2019-06-10T12:07:02.364Z,18.20
2019-06-10T12:08:39.137Z,15.00
2019-06-10T12:10:17.429Z,18.87
2019-06-10T12:11:58.100Z,19.25
2019-06-10T12:13:34.628Z,16.42
2019-06-10T12:15:12.416Z,15.98
2019-06-10T12:18:27.848Z,14.85
2019-06-10T12:20:13.228Z,18.73
2019-06-10T12:21:55.654Z,18.77
2019-06-10T12:23:28.975Z,15.23
2019-06-10T12:25:30.451Z,17.32
2019-06-10T12:26:47.659Z,15.80
2019-06-10T12:28:24.997Z,17.32
2019-06-10T12:30:04.868Z,22.48
2019-06-10T12:31:42.795Z,14.53
2019-06-10T12:33:24.220Z,13.25
2019-06-10T12:34:59.759Z,14.30
2019-06-10T12:36:36.896Z,16.05
2019-06-10T12:38:14.291Z,16.30
2019-06-10T12:39:54.997Z,18.42
2019-06-10T12:41:30.444Z,14.70
2019-06-10T12:43:07.656Z,18.27
2019-06-10T12:44:45.822Z,16.35
2019-06-10T12:46:23.190Z,15.03
2019-06-10T12:48:06.329Z,17.65
2019-06-10T12:49:42.570Z,14.03
2019-06-10T12:51:19.468Z,16.82
2019-06-10T12:52:56.509Z,19.75
2019-06-10T12:54:35.568Z,14.28
2019-06-10T12:56:15.055Z,16.35
2019-06-10T12:57:52.244Z,17.45
2019-06-10T12:59:29.590Z,15.90
2019-06-10T13:01:08.020Z,17.90
2019-06-10T13:02:45.519Z,16.15
2019-06-10T13:04:23.104Z,14.40
2019-06-10T13:06:07.225Z,17.75
2019-06-10T13:07:43.755Z,14.60
2019-06-10T13:09:23.577Z,13.78
2019-06-10T13:10:59.850Z,16.75
2019-06-10T13:12:37.405Z,18.12
2019-06-10T13:14:14.040Z,19.82
2019-06-10T13:15:53.210Z,16.82
2019-06-10T13:17:29.615Z,14.95
2019-06-10T13:19:08.024Z,17.32
2019-06-10T13:20:45.330Z,17.85
2019-06-10T13:22:23.131Z,17.55
2019-06-10T13:24:02.545Z,18.20
2019-06-10T13:25:53.128Z,18.42
2019-06-10T13:27:17.572Z,19.87
2019-06-10T13:28:54.320Z,22.93
2019-06-10T13:30:34.166Z,21.37
2019-06-10T13:32:10.079Z,18.25
2019-06-10T13:33:46.633Z,20.90
2019-06-10T13:35:24.033Z,19.02
2019-06-10T13:37:03.412Z,17.73
2019-06-10T13:38:39.730Z,18.32
2019-06-10T13:40:18.640Z,17.60
2019-06-10T13:41:56.028Z,18.60
2019-06-10T13:43:34.028Z,16.23
2019-06-10T13:45:12.788Z,19.50
2019-06-10T13:46:49.333Z,20.08
2019-06-10T13:48:27.216Z,19.32
2019-06-10T13:50:08.150Z,19.82
2019-06-10T13:51:45.170Z,19.45
2019-06-10T13:53:21.821Z,21.30
2019-06-10T13:54:59.068Z,19.37
2019-06-10T13:56:46.155Z,17.55
2019-06-10T13:58:14.834Z,19.20
2019-06-10T13:59:52.005Z,18.90
2019-06-10T14:01:29.503Z,18.02
2019-06-10T14:03:11.262Z,19.85
2019-06-10T14:04:45.794Z,17.77
2019-06-10T14:06:37.663Z,15.80
2019-06-10T14:08:05.419Z,20.75
2019-06-10T14:09:40.566Z,19.92
2019-06-10T14:11:19.058Z,19.42
2019-06-10T14:12:55.981Z,21.42
2019-06-10T14:14:33.403Z,20.88
2019-06-10T14:16:12.739Z,18.55
2019-06-10T14:17:49.984Z,19.48
2019-06-10T14:19:26.624Z,18.62
2019-06-10T14:21:07.897Z,19.10
2019-06-10T14:22:43.335Z,19.35
2019-06-10T14:24:22.776Z,18.12
2019-06-10T14:25:59.013Z,17.62
2019-06-10T14:27:36.288Z,17.85
2019-06-10T14:29:15.838Z,19.80
2019-06-10T14:30:53.840Z,21.00
2019-06-10T14:32:30.229Z,18.77
2019-06-10T14:34:09.651Z,22.40
2019-06-10T14:35:46.168Z,19.42
2019-06-10T14:37:35.108Z,17.50
2019-06-10T14:39:02.081Z,17.85
2019-06-10T14:40:39.514Z,21.15
2019-06-10T14:42:16.317Z,18.40
2019-06-10T14:43:53.775Z,15.85
2019-06-10T14:45:32.620Z,18.50
2019-06-10T14:47:13.548Z,18.15
2019-06-10T14:48:49.279Z,19.15
2019-06-10T14:50:26.807Z,21.60
2019-06-10T14:52:04.858Z,16.57
2019-06-10T14:53:42.808Z,16.70
2019-06-10T14:55:19.512Z,18.60
2019-06-10T14:56:57.466Z,17.73
2019-06-10T14:58:34.020Z,16.70
2019-06-10T15:00:16.269Z,17.73
2019-06-10T15:01:52.112Z,17.40
2019-06-10T15:03:32.679Z,17.10
2019-06-10T15:05:09.277Z,18.30
2019-06-10T15:06:46.629Z,21.23
2019-06-10T15:08:23.336Z,17.80
2019-06-10T15:10:03.305Z,19.87
2019-06-10T15:11:39.813Z,15.35
2019-06-10T15:13:17.230Z,16.45
2019-06-10T15:14:53.879Z,18.92
2019-06-10T15:16:33.454Z,17.12
2019-06-10T15:18:11.452Z,22.58
2019-06-10T15:19:49.312Z,16.35
2019-06-10T15:21:25.977Z,15.13
2019-06-10T15:23:03.332Z,16.10
2019-06-10T15:24:42.608Z,15.53
2019-06-10T15:26:18.793Z,15.93
2019-06-10T15:27:55.342Z,16.20
2019-06-10T15:29:33.191Z,16.37
2019-06-10T15:31:10.910Z,18.92
2019-06-10T15:32:48.747Z,15.95
2019-06-10T15:34:25.399Z,17.73
2019-06-10T15:36:03.130Z,14.95
2019-06-10T15:37:39.715Z,16.32
2019-06-10T15:39:19.630Z,17.92
2019-06-10T15:40:55.302Z,20.57
2019-06-10T15:42:33.280Z,15.43
2019-06-10T15:44:09.875Z,19.87
2019-06-10T15:45:47.303Z,17.02
2019-06-10T15:47:26.242Z,19.73
2019-06-10T15:49:02.796Z,15.63
2019-06-10T15:50:39.501Z,20.80
2019-06-10T15:52:18.770Z,17.50
2019-06-10T15:53:56.039Z,15.00
2019-06-10T15:56:08.457Z,15.38
2019-06-10T15:57:26.497Z,17.15
2019-06-10T15:58:52.160Z,16.02
2019-06-10T16:00:29.529Z,20.02
2019-06-10T16:02:07.704Z,17.50
2019-06-10T16:03:44.809Z,16.25
2019-06-10T16:05:25.214Z,18.55
2019-06-10T16:07:02.538Z,20.57
2019-06-10T16:08:40.164Z,21.15
2019-06-10T16:10:27.634Z,16.35
2019-06-10T16:12:03.014Z,15.50
2019-06-10T16:13:39.663Z,18.73
2019-06-10T16:15:18.193Z,18.15
2019-06-10T16:16:55.271Z,16.82
2019-06-10T16:18:33.082Z,16.85
2019-06-10T16:20:13.057Z,14.80
2019-06-10T16:21:52.498Z,16.17
2019-06-10T16:23:28.739Z,14.40
2019-06-10T16:25:08.066Z,17.12
2019-06-10T16:26:44.674Z,16.48
2019-06-10T16:28:24.539Z,13.90
2019-06-10T16:30:02.601Z,16.85
2019-06-10T16:31:39.435Z,16.05
2019-06-10T16:33:16.545Z,14.98
2019-06-10T16:34:53.908Z,13.32
2019-06-10T16:36:32.081Z,18.87
2019-06-10T16:38:09.515Z,16.48
2019-06-10T16:39:48.583Z,14.73
2019-06-10T16:41:27.903Z,18.75
2019-06-10T16:43:04.257Z,14.83
2019-06-10T16:44:42.470Z,16.20
2019-06-10T16:46:20.085Z,17.32
2019-06-10T16:47:57.882Z,18.27
2019-06-10T16:49:34.631Z,16.75
2019-06-10T16:51:13.462Z,17.02
2019-06-10T16:52:50.132Z,18.37
2019-06-10T16:54:27.689Z,15.58
2019-06-10T16:56:05.250Z,18.17
2019-06-10T16:57:42.713Z,15.20
2019-06-10T16:59:19.843Z,16.48
2019-06-10T17:00:57.178Z,16.90
2019-06-10T17:02:33.782Z,13.65
2019-06-10T17:04:12.454Z,14.98
2019-06-10T17:05:49.386Z,18.43
2019-06-10T17:07:26.977Z,15.90
2019-06-10T17:09:04.685Z,20.43
2019-06-10T17:10:43.618Z,17.70
2019-06-10T17:12:24.848Z,16.87
2019-06-10T17:14:03.084Z,14.05
2019-06-10T17:15:42.230Z,17.57
2019-06-10T17:17:20.490Z,17.33
2019-06-10T17:18:57.112Z,16.00
2019-06-10T17:20:34.520Z,16.80
2019-06-10T17:22:12.639Z,15.37
2019-06-10T17:23:52.475Z,20.13
2019-06-10T17:25:29.694Z,16.87
2019-06-10T17:27:07.233Z,15.23
2019-06-10T17:28:44.737Z,16.77
2019-06-10T17:30:23.929Z,17.77
2019-06-10T17:32:02.826Z,19.10
2019-06-10T17:33:42.452Z,16.30
2019-06-10T17:35:17.909Z,13.60
2019-06-10T17:36:55.305Z,17.87
2019-06-10T17:38:31.859Z,16.43
2019-06-10T17:40:09.966Z,14.43
2019-06-10T17:41:46.511Z,15.20
2019-06-10T17:43:25.060Z,16.93
2019-06-10T17:45:02.518Z,14.20
2019-06-10T17:46:42.460Z,15.17
2019-06-10T17:48:18.230Z,13.83
2019-06-10T17:49:55.458Z,18.30
2019-06-10T17:51:35.539Z,17.97
2019-06-10T17:53:12.690Z,16.13
2019-06-10T17:54:52.202Z,17.60
2019-06-10T17:56:30.789Z,16.17
2019-06-10T17:58:07.927Z,14.90
2019-06-10T17:59:45.320Z,17.67
2019-06-10T18:01:23.600Z,18.37
2019-06-10T18:03:03.655Z,18.23
2019-06-10T18:04:42.039Z,15.23
2019-06-10T18:06:19.119Z,17.47
2019-06-10T18:07:55.647Z,18.70
2019-06-10T18:09:36.677Z,17.73
2019-06-10T18:11:12.768Z,14.73
2019-06-10T18:12:52.626Z,19.10
2019-06-10T18:14:30.141Z,16.33
2019-06-10T18:16:08.339Z,15.27
2019-06-10T18:17:46.070Z,15.60
2019-06-10T18:19:24.317Z,16.07
2019-06-10T18:21:03.370Z,20.63
2019-06-10T18:22:40.581Z,18.00
2019-06-10T18:24:20.578Z,14.73
2019-06-10T18:25:56.082Z,13.90
2019-06-10T18:27:34.076Z,14.27
2019-06-10T18:29:12.989Z,18.67
2019-06-10T18:30:52.811Z,19.13
2019-06-10T18:32:29.791Z,18.03
2019-06-10T18:34:07.163Z,17.53
2019-06-10T18:35:44.569Z,15.83
2019-06-10T18:37:22.782Z,16.93
2019-06-10T18:39:02.839Z,21.20
2019-06-10T18:40:39.867Z,16.83
2019-06-10T18:42:17.854Z,19.07
2019-06-10T18:43:54.489Z,18.13
2019-06-10T18:45:35.085Z,21.63
2019-06-10T18:47:13.253Z,18.67
2019-06-10T18:48:49.553Z,19.83
2019-06-10T18:50:28.265Z,17.57
2019-06-10T18:52:05.757Z,20.60
2019-06-10T18:53:44.020Z,20.20
2019-06-10T18:55:22.668Z,19.53
2019-06-10T18:56:59.297Z,21.07
2019-06-10T18:58:37.836Z,20.63
2019-06-10T19:00:17.343Z,24.03
2019-06-10T19:01:54.675Z,21.50
2019-06-10T19:03:34.696Z,24.10
2019-06-10T19:05:13.396Z,25.67
2019-06-10T19:06:52.754Z,23.50
2019-06-10T19:08:29.060Z,18.20
2019-06-10T19:10:09.794Z,24.63
2019-06-10T19:11:46.403Z,21.97
2019-06-10T19:13:23.819Z,17.83
2019-06-10T19:15:04.633Z,17.43
2019-06-10T19:16:42.974Z,18.10
2019-06-10T19:18:19.801Z,19.07
2019-06-10T19:19:56.571Z,16.13
2019-06-10T19:21:34.223Z,16.53
2019-06-10T19:23:14.465Z,15.20
2019-06-10T19:24:52.804Z,16.57
2019-06-10T19:26:31.009Z,17.80
2019-06-10T19:28:07.836Z,19.00
2019-06-10T19:29:50.736Z,17.17
2019-06-10T19:31:23.399Z,16.87
2019-06-10T19:33:02.515Z,17.40
2019-06-10T19:34:39.452Z,21.70
2019-06-10T19:36:17.607Z,17.70
2019-06-10T19:37:54.264Z,28.57
2019-06-10T19:39:36.380Z,19.07
2019-06-10T19:41:10.014Z,15.83
2019-06-10T19:42:47.462Z,18.00
2019-06-10T19:44:25.537Z,21.53
2019-06-10T19:46:05.829Z,16.90
2019-06-10T19:47:44.093Z,20.60
2019-06-10T19:49:20.388Z,17.87
2019-06-10T19:50:56.933Z,18.23
2019-06-10T19:52:35.231Z,15.73
2019-06-10T19:54:12.744Z,18.47
2019-06-10T19:55:50.418Z,17.03
2019-06-10T19:57:27.129Z,23.70
2019-06-10T19:59:05.740Z,19.07
2019-06-10T20:00:48.772Z,16.23
2019-06-10T20:02:22.484Z,17.33
2019-06-10T20:03:59.241Z,16.00
2019-06-10T20:05:38.068Z,17.10
2019-06-10T20:07:14.751Z,20.50
2019-06-10T20:08:52.342Z,23.33
2019-06-10T20:10:29.121Z,15.03
2019-06-10T20:12:06.594Z,14.33
2019-06-10T20:13:45.374Z,20.40
2019-06-10T20:15:27.876Z,16.13
2019-06-10T20:17:05.394Z,18.00
2019-06-10T20:18:45.284Z,18.17
2019-06-10T20:20:22.651Z,16.00
2019-06-10T20:21:59.278Z,16.93
2019-06-10T20:23:37.378Z,14.60
2019-06-10T20:25:14.672Z,14.37
2019-06-10T20:26:59.275Z,13.50
2019-06-10T20:28:36.623Z,14.77
2019-06-10T20:30:24.299Z,17.27
2019-06-10T20:31:53.369Z,17.50
2019-06-10T20:33:36.211Z,16.23
2019-06-10T20:37:08.380Z,14.73
2019-06-10T20:38:48.888Z,17.47
2019-06-10T20:40:25.662Z,17.53
2019-06-10T20:42:03.028Z,18.50
2019-06-10T20:43:39.677Z,17.20
2019-06-10T20:45:17.463Z,17.47
2019-06-10T20:46:54.698Z,17.53
2019-06-10T20:48:33.294Z,14.30
2019-06-10T20:50:13.099Z,20.27
2019-06-10T20:52:07.149Z,16.03
2019-06-10T20:53:28.861Z,18.13
2019-06-10T20:55:08.608Z,17.97
2019-06-10T20:56:48.355Z,18.73
2019-06-10T20:58:24.347Z,17.27
2019-06-10T21:00:01.109Z,20.60
2019-06-10T21:01:39.105Z,21.33
2019-06-10T21:03:15.811Z,18.60
2019-06-10T21:04:54.306Z,21.53
2019-06-10T21:06:33.041Z,17.10
2019-06-10T21:08:13.326Z,18.73
2019-06-10T21:09:53.402Z,19.43
2019-06-10T21:11:32.236Z,18.83
2019-06-10T21:13:09.359Z,17.23
2019-06-10T21:14:47.243Z,23.13